Time;durP1;ratioP1;P1;durP2;ratioP2;P2;SDS_P1;SDS_P2;PMS_P1;PMS_P2;Temp;Humidity;BMP_temperature;BMP_pressure;BME280_temperature;BME280_humidity;BME280_pressure;Samples;Min_cycle;Max_cycle;Signal;HPM_P1;HPM_P2
2022/08/28 00:00:42;;;;;;;15.70;7.00;;;;;;;13.93;100.00;102155.69;7383247;19;20011;-76
2022/08/28 00:03:15;;;;;;;19.85;7.40;;;;;;;13.90;100.00;102175.00;7385343;19;20250;-76
2022/08/28 00:05:46;;;;;;;19.55;7.90;;;;;;;13.87;100.00;102160.84;7389706;19;20041;-77
2022/08/28 00:08:17;;;;;;;18.00;7.15;;;;;;;13.86;100.00;102173.16;7386522;19;20026;-77
2022/08/28 00:10:47;;;;;;;19.20;7.45;;;;;;;13.81;100.00;102166.00;7392029;19;20081;-76
2022/08/28 00:13:20;;;;;;;17.40;6.55;;;;;;;13.76;100.00;102173.81;7385236;19;20722;-76
2022/08/28 00:15:53;;;;;;;20.95;7.18;;;;;;;13.72;100.00;102174.59;7380979;19;20027;-77
2022/08/28 00:18:27;;;;;;;19.25;6.75;;;;;;;13.63;100.00;102171.75;7380381;19;20035;-77
2022/08/28 00:20:59;;;;;;;22.38;7.72;;;;;;;13.57;100.00;102174.25;7376954;19;20799;-74
2022/08/28 00:23:31;;;;;;;18.77;8.07;;;;;;;13.52;100.00;102178.56;7379656;19;20011;-74
2022/08/28 00:27:51;;;;;;;18.42;7.53;;;;;;;13.45;100.00;102177.53;7375722;19;20586;-75
2022/08/28 00:29:06;;;;;;;20.83;8.00;;;;;;;13.38;100.00;102173.88;7373444;19;20725;-72
2022/08/28 00:31:40;;;;;;;19.63;7.30;;;;;;;13.34;100.00;102179.94;7377490;19;20002;-73
2022/08/28 00:34:12;;;;;;;22.85;8.65;;;;;;;13.29;100.00;102178.06;7376308;19;20048;-72
2022/08/28 00:36:42;;;;;;;18.85;7.50;;;;;;;13.26;100.00;102185.88;7378504;19;20011;-75
2022/08/28 00:39:12;;;;;;;17.38;7.55;;;;;;;13.22;100.00;102190.19;7377084;19;20099;-74
2022/08/28 00:41:45;;;;;;;23.83;8.82;;;;;;;13.19;100.00;102184.84;7377575;19;20015;-74
2022/08/28 00:44:18;;;;;;;21.15;8.57;;;;;;;13.21;100.00;102184.88;7374039;19;20010;-73
2022/08/28 00:46:51;;;;;;;17.58;7.88;;;;;;;13.19;100.00;102189.22;7376600;19;20132;-73
2022/08/28 00:49:30;;;;;;;17.85;8.02;;;;;;;13.17;100.00;102189.19;7375933;19;20010;-73
2022/08/28 00:52:07;;;;;;;13.57;6.32;;;;;;;13.16;100.00;102194.38;7376071;19;20031;-74
2022/08/28 00:54:44;;;;;;;22.25;7.53;;;;;;;13.12;100.00;102189.88;7373570;19;20324;-73
2022/08/28 00:57:35;;;;;;;21.83;6.88;;;;;;;13.08;100.00;102191.56;7369172;19;20017;-73
2022/08/28 01:00:09;;;;;;;20.98;7.10;;;;;;;13.02;100.00;102192.31;7375681;19;20021;-74
2022/08/28 01:02:42;;;;;;;13.27;5.95;;;;;;;12.98;100.00;102190.44;7377674;19;20006;-73
2022/08/28 01:05:16;;;;;;;18.92;6.00;;;;;;;12.97;100.00;102188.66;7375917;19;20011;-73
2022/08/28 01:07:48;;;;;;;16.05;6.15;;;;;;;12.97;100.00;102180.75;7374558;19;20052;-73
2022/08/28 01:10:22;;;;;;;18.35;5.97;;;;;;;12.96;100.00;102189.50;7372949;19;20035;-77
2022/08/28 01:12:55;;;;;;;14.23;5.53;;;;;;;12.98;100.00;102184.28;7378593;19;20470;-76
2022/08/28 01:15:39;;;;;;;19.85;6.00;;;;;;;12.98;100.00;102186.91;7377191;19;20015;-76
2022/08/28 01:18:12;;;;;;;13.25;5.45;;;;;;;12.97;100.00;102188.66;7376435;19;20066;-76
2022/08/28 01:20:52;;;;;;;13.70;5.68;;;;;;;12.94;100.00;102185.06;7376571;19;20550;-77
2022/08/28 01:23:30;;;;;;;16.77;6.20;;;;;;;12.92;100.00;102181.50;7376806;19;20014;-76
2022/08/28 01:26:06;;;;;;;12.88;5.10;;;;;;;12.91;100.00;102179.72;7381621;19;20407;-76
2022/08/28 01:28:40;;;;;;;15.90;5.53;;;;;;;12.87;100.00;102181.38;7383264;19;20730;-77
2022/08/28 01:31:11;;;;;;;13.05;4.95;;;;;;;12.87;100.00;102175.22;7379106;19;20070;-76
2022/08/28 01:33:42;;;;;;;10.48;4.68;;;;;;;12.84;100.00;102177.78;7379958;19;20003;-76
2022/08/28 01:36:13;;;;;;;12.82;5.20;;;;;;;12.80;100.00;102183.81;7380883;19;20023;-77
2022/08/28 01:38:46;;;;;;;15.48;4.82;;;;;;;12.80;100.00;102175.94;7384511;19;20013;-76
2022/08/28 01:41:20;;;;;;;10.45;4.57;;;;;;;12.78;100.00;102179.41;7381200;19;20014;-77
2022/08/28 01:43:50;;;;;;;13.20;5.13;;;;;;;12.76;100.00;102178.47;7387378;19;20014;-77
2022/08/28 01:46:19;;;;;;;15.07;5.10;;;;;;;12.75;100.00;102176.69;7383666;19;20519;-77
2022/08/28 01:48:50;;;;;;;13.20;5.20;;;;;;;12.72;100.00;102181.88;7388496;19;20090;-77
2022/08/28 01:51:20;;;;;;;13.07;4.53;;;;;;;12.66;100.00;102179.09;7387160;19;20015;-77
2022/08/28 01:53:54;;;;;;;10.25;4.68;;;;;;;12.64;100.00;102183.44;7387840;19;20671;-77
2022/08/28 01:56:30;;;;;;;14.35;5.38;;;;;;;12.65;100.00;102190.47;7388076;19;20015;-77
2022/08/28 01:59:00;;;;;;;14.45;6.05;;;;;;;12.63;100.00;102186.91;7386704;19;20007;-76
2022/08/28 02:01:30;;;;;;;13.07;5.03;;;;;;;12.61;100.00;102188.59;7386192;19;20003;-76
2022/08/28 02:04:03;;;;;;;14.43;5.45;;;;;;;12.61;100.00;102188.59;7384501;19;20020;-76
2022/08/28 02:06:35;;;;;;;10.80;4.95;;;;;;;12.58;100.00;102188.53;7387181;19;20039;-77
2022/08/28 02:09:08;;;;;;;12.60;5.18;;;;;;;12.55;100.00;102185.81;7386883;19;20541;-75
2022/08/28 02:11:46;;;;;;;12.82;5.30;;;;;;;12.53;100.00;102187.50;7387951;19;20022;-77
2022/08/28 02:14:16;;;;;;;14.50;4.95;;;;;;;12.50;100.00;102191.81;7386902;19;20491;-74
2022/08/28 02:16:46;;;;;;;17.02;5.40;;;;;;;12.49;100.00;102197.91;7381204;19;20043;-74
2022/08/28 02:19:16;;;;;;;14.38;5.13;;;;;;;12.47;100.00;102187.38;7381674;19;20568;-73
2022/08/28 02:21:46;;;;;;;14.23;5.30;;;;;;;12.46;100.00;102192.59;7380356;19;20015;-73
2022/08/28 02:24:16;;;;;;;12.95;4.95;;;;;;;12.40;100.00;102193.34;7381180;19;20070;-74
2022/08/28 02:26:48;;;;;;;14.40;5.65;;;;;;;12.39;100.00;102202.06;7379845;19;20018;-76
2022/08/28 02:29:18;;;;;;;14.40;4.72;;;;;;;12.35;100.00;102190.56;7382573;19;20334;-77
2022/08/28 02:31:48;;;;;;;12.88;5.70;;;;;;;12.35;100.00;102195.84;7380806;19;20078;-77
2022/08/28 02:34:20;;;;;;;13.98;5.32;;;;;;;12.34;100.00;102194.06;7381828;19;20006;-76
2022/08/28 02:36:51;;;;;;;13.02;5.05;;;;;;;12.33;100.00;102191.38;7382557;19;20018;-77
2022/08/28 02:39:21;;;;;;;11.43;4.70;;;;;;;12.33;100.00;102187.00;7386036;19;20002;-76
2022/08/28 02:41:53;;;;;;;12.35;4.85;;;;;;;12.32;100.00;102197.50;7386235;19;20002;-76
2022/08/28 02:44:28;;;;;;;14.85;5.00;;;;;;;12.33;100.00;102192.28;7388203;19;20033;-76
2022/08/28 02:46:59;;;;;;;11.82;5.10;;;;;;;12.26;100.00;102194.69;7390927;19;20051;-77
2022/08/28 02:49:31;;;;;;;14.15;6.07;;;;;;;12.26;100.00;102206.09;7393419;19;20014;-77
2022/08/28 02:52:08;;;;;;;12.35;4.90;;;;;;;12.24;100.00;102201.66;7386874;19;20014;-73
2022/08/28 02:54:39;;;;;;;10.02;5.05;;;;;;;12.25;100.00;102208.69;7387709;19;20006;-73
2022/08/28 02:57:13;;;;;;;11.82;5.18;;;;;;;12.24;100.00;102201.66;7390005;19;20033;-73
2022/08/28 02:59:42;;;;;;;12.57;5.15;;;;;;;12.24;100.00;102206.91;7390899;19;20535;-73
2022/08/28 03:02:13;;;;;;;15.82;5.70;;;;;;;12.17;100.00;102210.22;7390345;19;20017;-73
2022/08/28 03:04:43;;;;;;;12.65;5.30;;;;;;;12.15;100.00;102217.16;7388755;19;20883;-73
2022/08/28 03:07:15;;;;;;;10.20;4.63;;;;;;;12.13;100.00;102217.13;7387612;19;20017;-73
2022/08/28 03:09:45;;;;;;;15.68;6.72;;;;;;;12.14;100.00;102210.13;7384666;19;20369;-73
2022/08/28 03:12:22;;;;;;;15.05;5.78;;;;;;;12.12;100.00;102212.72;7380879;19;20038;-74
2022/08/28 03:14:57;;;;;;;10.00;5.10;;;;;;;12.09;100.00;102208.25;7382101;19;20014;-73
2022/08/28 03:17:30;;;;;;;14.73;5.65;;;;;;;12.08;100.00;102209.09;7380253;19;20021;-73
2022/08/28 03:20:05;;;;;;;10.10;4.78;;;;;;;12.08;100.00;102211.72;7380602;19;20023;-73
2022/08/28 03:25:21;;;;;;;10.20;5.22;;;;;;;12.04;100.00;102203.69;7378020;19;20015;-73
2022/08/28 03:27:54;;;;;;;10.13;4.95;;;;;;;12.05;100.00;102211.63;7383616;19;20365;-73
2022/08/28 03:30:26;;;;;;;10.77;4.95;;;;;;;12.02;100.00;102211.56;7378049;19;20540;-73
2022/08/28 03:33:00;;;;;;;11.35;4.93;;;;;;;12.00;100.00;102205.34;7382086;19;20447;-74
2022/08/28 03:35:36;;;;;;;13.80;6.07;;;;;;;11.98;100.00;102199.16;7385145;19;20047;-77
2022/08/28 03:38:08;;;;;;;11.63;5.22;;;;;;;11.96;100.00;102206.09;7384039;19;20022;-77
2022/08/28 03:40:42;;;;;;;17.35;5.30;;;;;;;11.92;100.00;102203.34;7384705;19;20420;-76
2022/08/28 03:43:19;;;;;;;13.98;5.88;;;;;;;11.89;100.00;102205.88;7382216;19;20054;-77
2022/08/28 03:46:01;;;;;;;14.80;5.85;;;;;;;11.85;100.00;102210.16;7382996;19;20006;-77
2022/08/28 03:48:39;;;;;;;16.77;5.43;;;;;;;11.82;100.00;102217.94;7381979;19;20524;-76
2022/08/28 03:51:15;;;;;;;12.10;5.40;;;;;;;11.79;100.00;102228.38;7381055;19;20120;-76
2022/08/28 03:53:46;;;;;;;12.20;5.10;;;;;;;11.78;100.00;102226.59;7381301;19;20038;-76
2022/08/28 03:56:22;;;;;;;10.98;4.80;;;;;;;11.81;100.00;102224.06;7381627;19;20043;-76
2022/08/28 03:58:56;;;;;;;13.02;5.50;;;;;;;11.84;100.00;102226.78;7381212;19;20092;-76
2022/08/28 04:01:27;;;;;;;15.60;5.57;;;;;;;11.81;100.00;102225.78;7382482;19;20218;-76
2022/08/28 04:03:58;;;;;;;12.30;5.75;;;;;;;11.82;100.00;102232.84;7380421;19;20009;-76
2022/08/28 04:06:29;;;;;;;12.23;5.35;;;;;;;11.78;100.00;102237.09;7378327;19;20097;-73
2022/08/28 04:08:59;;;;;;;15.50;5.38;;;;;;;11.75;100.00;102236.97;7375950;19;20031;-72
2022/08/28 04:11:31;;;;;;;12.48;5.38;;;;;;;11.74;100.00;102235.19;7373604;19;20063;-77
2022/08/28 04:14:07;;;;;;;18.58;5.72;;;;;;;11.73;100.00;102234.31;7378948;19;20351;-76
2022/08/28 04:16:37;;;;;;;16.45;5.43;;;;;;;11.74;100.00;102238.72;7381749;19;20015;-76
2022/08/28 04:19:07;;;;;;;16.20;5.10;;;;;;;11.73;100.00;102233.41;7382211;19;20093;-76
2022/08/28 04:21:38;;;;;;;13.68;5.43;;;;;;;11.72;100.00;102239.50;7381779;19;20447;-73
2022/08/28 04:24:08;;;;;;;14.73;6.53;;;;;;;11.68;100.00;102237.63;7377173;19;20025;-73
2022/08/28 04:26:38;;;;;;;11.02;4.78;;;;;;;11.66;100.00;102242.84;7375487;19;20459;-73
2022/08/28 04:29:10;;;;;;;11.38;4.85;;;;;;;11.64;100.00;102238.38;7377118;19;20451;-73
2022/08/28 04:31:40;;;;;;;14.70;5.82;;;;;;;11.63;100.00;102247.09;7375392;19;20014;-73
2022/08/28 04:34:10;;;;;;;12.85;5.65;;;;;;;11.64;100.00;102241.00;7375839;19;20529;-73
2022/08/28 04:36:40;;;;;;;13.93;5.50;;;;;;;11.64;100.00;102243.63;7375256;19;20580;-73
2022/08/28 04:39:10;;;;;;;10.43;4.75;;;;;;;11.67;100.00;102241.09;7374792;19;20579;-73
2022/08/28 04:41:40;;;;;;;11.25;5.00;;;;;;;11.70;100.00;102242.09;7376557;19;20102;-73
2022/08/28 04:44:13;;;;;;;11.25;5.43;;;;;;;11.70;100.00;102244.72;7376067;19;20006;-73
2022/08/28 04:46:43;;;;;;;14.07;5.60;;;;;;;11.71;100.00;102246.50;7373071;19;20006;-76
2022/08/28 04:49:16;;;;;;;11.88;4.50;;;;;;;11.75;100.00;102252.75;7379078;19;20011;-76
2022/08/28 04:51:47;;;;;;;12.07;4.82;;;;;;;11.79;100.00;102249.41;7379371;19;20003;-75
2022/08/28 04:54:17;;;;;;;14.13;5.22;;;;;;;11.82;100.00;102254.75;7375460;19;20014;-76
2022/08/28 04:56:47;;;;;;;11.48;4.90;;;;;;;11.83;100.00;102256.53;7377041;19;20013;-76
2022/08/28 04:59:20;;;;;;;12.63;5.65;;;;;;;11.87;100.00;102247.91;7384397;19;20073;-76
2022/08/28 05:01:50;;;;;;;16.73;5.80;;;;;;;11.93;100.00;102245.47;7383328;19;20018;-73
2022/08/28 05:04:21;;;;;;;14.13;5.72;;;;;;;12.01;100.00;102256.19;7385097;19;20015;-73
2022/08/28 05:06:51;;;;;;;14.70;5.50;;;;;;;12.07;100.00;102251.13;7386474;19;20050;-73
2022/08/28 05:09:21;;;;;;;15.52;6.20;;;;;;;12.10;100.00;102260.00;7381634;19;20021;-73
2022/08/28 05:11:52;;;;;;;15.38;5.80;;;;;;;12.18;100.00;102260.22;7384304;19;20014;-76
2022/08/28 05:14:26;;;;;;;14.45;6.10;;;;;;;12.22;100.00;102256.84;7385813;19;20019;-77
2022/08/28 05:16:56;;;;;;;18.13;6.32;;;;;;;12.29;100.00;102263.16;7382387;19;20015;-72
2022/08/28 05:19:30;;;;;;;17.73;7.95;;;;;;;12.35;100.00;102268.59;7383568;19;20010;-79
2022/08/28 05:22:08;;;;;;;17.02;6.20;;;;;;;12.41;100.00;102263.53;7384815;19;20483;-74
2022/08/28 05:24:40;;;;;;;17.20;6.85;;;;;;;12.50;100.00;102265.47;7387026;19;20015;-78
2022/08/28 05:27:10;;;;;;;15.23;7.03;;;;;;;12.61;100.00;102270.19;7382495;19;20050;-77
2022/08/28 05:29:42;;;;;;;14.65;7.40;;;;;;;12.69;100.00;102271.31;7385692;19;20010;-76
2022/08/28 05:32:12;;;;;;;16.02;6.43;;;;;;;12.80;100.00;102270.69;7381413;19;20102;-77
2022/08/28 05:34:42;;;;;;;14.40;5.82;;;;;;;12.93;100.00;102262.28;7383541;19;20021;-73
2022/08/28 05:37:15;;;;;;;13.10;5.72;;;;;;;13.06;100.00;102267.91;7378218;19;20010;-73
2022/08/28 05:39:48;;;;;;;14.23;5.68;;;;;;;13.17;100.00;102270.84;7386423;19;20022;-77
2022/08/28 05:42:17;;;;;;;14.07;5.35;;;;;;;13.29;100.00;102271.16;7381043;19;20007;-77
2022/08/28 05:44:50;;;;;;;13.50;5.72;;;;;;;13.43;100.00;102278.50;7383779;19;20491;-77
2022/08/28 05:47:23;;;;;;;19.25;5.85;;;;;;;13.55;100.00;102271.75;7385286;19;20071;-77
2022/08/28 05:49:53;;;;;;;13.32;5.35;;;;;;;13.67;100.00;102273.78;7387897;19;20014;-79
2022/08/28 05:52:23;;;;;;;9.35;4.38;;;;;;;13.83;100.00;102270.66;7389956;19;20032;-78
2022/08/28 05:54:53;;;;;;;10.73;4.60;;;;;;;14.07;100.00;102273.84;7392452;19;20010;-74
2022/08/28 05:57:23;;;;;;;12.80;5.57;;;;;;;14.34;100.00;102264.72;7391737;19;20570;-74
2022/08/28 05:59:56;;;;;;;13.13;5.03;;;;;;;14.43;100.00;102271.97;7392654;19;20019;-74
2022/08/28 06:02:26;;;;;;;13.40;4.20;;;;;;;14.67;100.00;102273.31;7388520;19;20018;-73
2022/08/28 06:04:58;;;;;;;10.75;4.45;;;;;;;14.66;100.00;102268.91;7383159;19;20027;-73
2022/08/28 06:07:28;;;;;;;10.10;4.05;;;;;;;14.67;100.00;102280.34;7379878;19;20018;-73
2022/08/28 06:09:58;;;;;;;11.10;4.13;;;;;;;14.76;100.00;102274.34;7381324;19;20301;-75
2022/08/28 06:12:29;;;;;;;14.32;4.10;;;;;;;15.06;100.00;102272.28;7378619;19;20129;-77
2022/08/28 06:15:04;;;;;;;10.23;4.40;;;;;;;15.25;100.00;102271.72;7387264;19;20162;-76
2022/08/28 06:17:39;;;;;;;10.40;4.07;;;;;;;15.54;100.00;102271.31;7380726;19;20014;-77
2022/08/28 06:20:10;;;;;;;10.00;3.50;;;;;;;15.61;100.00;102271.44;7380821;19;20078;-78
2022/08/28 06:22:40;;;;;;;10.57;3.28;;;;;;;15.48;100.00;102277.38;7383560;19;20011;-78
2022/08/28 06:25:13;;;;;;;12.38;3.95;;;;;;;15.65;100.00;102282.94;7385682;19;20010;-78
2022/08/28 06:27:42;;;;;;;9.52;3.70;;;;;;;15.77;100.00;102277.84;7380952;19;20463;-78
2022/08/28 06:30:15;;;;;;;9.98;3.33;;;;;;;16.12;100.00;102280.09;7381527;19;20011;-78
2022/08/28 06:32:45;;;;;;;12.90;4.60;;;;;;;16.39;100.00;102282.22;7380818;19;20090;-78
2022/08/28 06:35:14;;;;;;;8.70;3.53;;;;;;;16.65;100.00;102286.06;7380909;19;20293;-78
2022/08/28 06:37:44;;;;;;;7.68;3.33;;;;;;;16.92;100.00;102282.81;7378664;19;20010;-73
2022/08/28 06:40:14;;;;;;;14.40;3.97;;;;;;;17.18;100.00;102291.03;7377952;19;20093;-74
2022/08/28 06:42:44;;;;;;;9.65;3.17;;;;;;;17.39;100.00;102285.91;7379370;19;20550;-74
2022/08/28 06:45:16;;;;;;;7.63;2.90;;;;;;;17.56;100.00;102288.69;7379537;19;20007;-78
2022/08/28 06:47:48;;;;;;;9.57;3.40;;;;;;;17.52;100.00;102294.84;7378973;19;20033;-73
2022/08/28 06:50:21;;;;;;;7.13;3.05;;;;;;;17.39;100.00;102292.97;7379555;19;20015;-74
2022/08/28 06:52:51;;;;;;;7.78;3.00;;;;;;;17.53;100.00;102297.50;7375835;19;20082;-74
2022/08/28 06:55:21;;;;;;;9.95;3.00;;;;;;;17.44;100.00;102291.25;7377063;19;20024;-74
2022/08/28 06:57:50;;;;;;;7.47;3.15;;;;;;;17.20;100.00;102294.56;7379803;19;20919;-74
2022/08/28 07:00:23;;;;;;;12.40;3.58;;;;;;;17.12;100.00;102291.84;7379916;19;20019;-73
2022/08/28 07:02:53;;;;;;;9.80;2.83;;;;;;;16.95;100.00;102293.44;7380284;19;20073;-74
2022/08/28 07:05:23;;;;;;;11.40;2.90;;;;;;;16.84;100.00;102295.09;7379395;19;20010;-73
2022/08/28 07:07:54;;;;;;;10.52;3.22;;;;;;;17.13;100.00;102298.03;7379455;19;20003;-73
2022/08/28 07:10:24;;;;;;;9.65;3.60;;;;;;;17.19;100.00;102293.69;7377544;19;20022;-73
2022/08/28 07:12:53;;;;;;;9.40;3.25;;;;;;;17.11;100.00;102303.31;7378202;19;20007;-74
2022/08/28 07:15:28;;;;;;;12.10;3.25;;;;;;;17.02;100.00;102302.34;7379132;19;20011;-73
2022/08/28 07:18:00;;;;;;;13.98;3.40;;;;;;;16.99;100.00;102300.56;7376591;19;20594;-73
2022/08/28 07:20:32;;;;;;;9.65;3.30;;;;;;;17.07;100.00;102304.16;7374702;19;20080;-73
2022/08/28 07:23:05;;;;;;;9.82;3.30;;;;;;;17.22;100.00;102304.31;7375151;19;20018;-74
2022/08/28 07:25:42;;;;;;;9.07;2.85;;;;;;;18.07;100.00;102305.84;7376242;19;20031;-73
2022/08/28 07:28:11;;;;;;;13.35;3.40;;;;;;;17.73;100.00;102313.59;7374072;19;20176;-74
2022/08/28 07:30:47;;;;;;;10.48;3.30;;;;;;;17.71;100.00;102318.00;7373596;19;20463;-73
2022/08/28 07:33:18;;;;;;;9.57;2.90;;;;;;;18.01;100.00;102324.38;7373206;19;20018;-74
2022/08/28 07:35:49;;;;;;;9.75;3.22;;;;;;;18.33;100.00;102311.28;7376079;19;20025;-72
2022/08/28 07:38:19;;;;;;;8.73;3.10;;;;;;;18.73;100.00;102320.31;7375045;19;20041;-73
2022/08/28 07:40:48;;;;;;;7.32;3.00;;;;;;;18.86;100.00;102324.78;7380171;19;20015;-72
2022/08/28 07:46:10;;;;;;;7.47;2.40;;;;;;;19.44;100.00;102323.09;7376474;19;20014;-78
2022/08/28 07:48:46;;;;;;;8.05;2.97;;;;;;;19.52;100.00;102333.75;7378728;19;20011;-78
2022/08/28 07:51:16;;;;;;;8.73;2.97;;;;;;;19.80;100.00;102329.28;7378422;19;20029;-79
2022/08/28 07:53:46;;;;;;;9.52;3.08;;;;;;;19.89;100.00;102324.84;7372252;19;20018;-78
2022/08/28 07:56:15;;;;;;;5.93;2.78;;;;;;;20.07;100.00;102328.34;7374977;19;20418;-78
2022/08/28 07:58:45;;;;;;;9.77;2.80;;;;;;;19.81;100.00;102325.72;7378950;19;20010;-78
2022/08/28 08:01:18;;;;;;;7.82;3.15;;;;;;;19.43;100.00;102339.94;7377548;19;20006;-79
2022/08/28 08:03:48;;;;;;;7.22;2.90;;;;;;;19.05;100.00;102342.53;7384724;19;20010;-80
2022/08/28 08:06:24;;;;;;;6.95;2.55;;;;;;;19.13;100.00;102342.56;7387157;19;20058;-79
2022/08/28 08:08:59;;;;;;;6.97;2.60;;;;;;;19.39;100.00;102343.47;7389359;19;20096;-80
2022/08/28 08:11:34;;;;;;;8.32;2.30;;;;;;;19.93;100.00;102339.03;7393618;19;20523;-80
2022/08/28 08:14:08;;;;;;;8.73;2.72;;;;;;;20.27;100.00;102342.50;7392310;19;20054;-80
2022/08/28 08:16:42;;;;;;;11.38;2.92;;;;;;;20.68;100.00;102342.38;7390703;19;20007;-79
2022/08/28 08:19:15;;;;;;;8.77;2.42;;;;;;;20.92;100.00;102338.66;7384173;19;20014;-81
2022/08/28 08:21:47;;;;;;;10.73;2.70;;;;;;;21.24;100.00;102341.16;7378405;19;20006;-74
2022/08/28 08:24:24;;;;;;;8.05;2.40;;;;;;;21.40;100.00;102339.28;7369158;19;20304;-74
2022/08/28 08:26:59;;;;;;;6.88;2.20;;;;;;;20.43;100.00;102343.38;7376882;19;20010;-74
2022/08/28 08:29:35;;;;;;;10.32;2.50;;;;;;;19.78;100.00;102352.34;7374988;19;20458;-73
2022/08/28 08:32:11;;;;;;;8.75;2.30;;;;;;;19.84;100.00;102347.91;7375048;19;20015;-76
2022/08/28 08:34:44;;;;;;;9.63;2.72;;;;;;;20.47;100.00;102346.03;7380989;19;20028;-74
2022/08/28 08:37:14;;;;;;;5.05;2.00;;;;;;;20.73;100.00;102347.69;7379996;19;20022;-75
2022/08/28 08:39:45;;;;;;;9.90;2.97;;;;;;;21.21;100.00;102339.41;7381614;19;20010;-75
2022/08/28 08:42:24;;;;;;;6.80;2.35;;;;;;;21.43;100.00;102340.13;7381512;19;20052;-75
2022/08/28 08:44:56;;;;;;;7.90;2.92;;;;;;;20.84;100.00;102345.81;7378621;19;20022;-76
2022/08/28 08:47:39;;;;;;;10.25;3.28;;;;;;;21.44;99.83;102333.00;7382122;19;20018;-80
2022/08/28 08:50:16;;;;;;;6.47;2.30;;;;;;;21.64;97.88;102336.41;7384432;19;20021;-80
2022/08/28 08:53:04;;;;;;;7.57;2.28;;;;;;;21.56;98.38;102343.59;7379188;19;20035;-80
2022/08/28 08:55:44;;;;;;;9.63;2.65;;;;;;;21.52;96.42;102341.84;7385703;19;20007;-73
2022/08/28 08:58:21;;;;;;;11.75;2.90;;;;;;;21.90;95.19;102332.56;7386692;19;20031;-74
2022/08/28 09:00:59;;;;;;;8.63;2.75;;;;;;;22.08;92.01;102335.09;7385000;19;21301;-74
2022/08/28 09:03:46;;;;;;;6.47;2.58;;;;;;;22.16;87.28;102335.88;7388966;19;20030;-75
2022/08/28 09:06:27;;;;;;;6.65;2.25;;;;;;;22.49;84.65;102332.81;7392002;19;20014;-76
2022/08/28 09:09:00;;;;;;;6.05;2.63;;;;;;;21.90;85.58;102338.78;7392072;19;20027;-77
2022/08/28 09:11:47;;;;;;;6.32;1.83;;;;;;;21.74;88.48;102339.88;7393331;19;20038;-80
2022/08/28 09:14:35;;;;;;;8.00;2.22;;;;;;;22.58;86.28;102339.84;7382720;19;20055;-80
2022/08/28 09:17:10;;;;;;;5.60;2.13;;;;;;;22.70;84.92;102330.78;7384530;19;20141;-81
2022/08/28 09:19:43;;;;;;;6.78;2.15;;;;;;;22.63;80.80;102334.44;7387610;19;20447;-80
2022/08/28 09:22:13;;;;;;;9.13;2.40;;;;;;;22.34;82.92;102335.69;7383354;19;20019;-82
2022/08/28 09:24:45;;;;;;;6.50;2.10;;;;;;;22.86;82.88;102337.72;7376076;19;20063;-77
2022/08/28 09:27:24;;;;;;;;;;;;;;;23.04;80.20;102334.75;7381507;19;20007;-77
2022/08/28 09:30:01;;;;;;;4.90;2.15;;;;;;;22.68;82.76;102344.16;7380584;19;19930;-77
2022/08/28 09:32:40;;;;;;;6.90;2.58;;;;;;;22.77;83.67;102336.03;7377040;19;20040;-76
2022/08/28 09:35:17;;;;;;;;;;;;;;;22.74;81.71;102338.75;7380091;19;20007;-77
2022/08/28 09:37:47;;;;;;;7.00;2.70;;;;;;;23.33;78.13;102330.75;7381665;19;19910;-76
2022/08/28 09:40:24;;;;;;;6.78;2.45;;;;;;;23.02;80.68;102325.88;7381123;19;20015;-76
2022/08/28 09:43:30;;;;;;;6.65;2.05;;;;;;;23.74;79.27;102328.28;7387814;19;20007;-76
2022/08/28 09:46:03;;;;;;;8.95;2.33;;;;;;;23.66;75.55;102327.53;7380938;19;20522;-76
2022/08/28 09:48:42;;;;;;;6.05;2.25;;;;;;;23.53;71.29;102328.63;7382015;19;20330;-76
2022/08/28 09:51:28;;;;;;;6.32;2.10;;;;;;;23.98;71.27;102332.28;7382900;19;20071;-76
2022/08/28 09:54:04;;;;;;;6.28;2.20;;;;;;;23.98;70.39;102320.69;7378350;19;20019;-76
2022/08/28 09:56:38;;;;;;;7.22;2.42;;;;;;;23.83;71.13;102334.38;7379877;19;20011;-75
2022/08/28 09:59:10;;;;;;;6.53;2.45;;;;;;;24.04;70.25;102324.13;7383302;19;20610;-76
2022/08/28 10:02:10;;;;;;;5.35;1.95;;;;;;;23.83;70.92;102327.25;7381436;19;20006;-77
2022/08/28 10:04:53;;;;;;;6.15;2.17;;;;;;;24.30;71.32;102325.44;7381817;19;20530;-74
2022/08/28 10:07:39;;;;;;;5.80;2.40;;;;;;;23.84;71.81;102329.00;7380641;19;22477;-76
2022/08/28 10:10:23;;;;;;;5.35;2.20;;;;;;;23.73;74.02;102331.00;7387001;19;20027;-75
2022/08/28 10:13:05;;;;;;;7.93;2.50;;;;;;;22.64;78.35;102328.19;7387778;19;20333;-75
2022/08/28 10:15:55;;;;;;;6.93;2.08;;;;;;;22.97;77.65;102325.03;7382396;19;20062;-77
2022/08/28 10:18:40;;;;;;;5.78;2.60;;;;;;;23.55;77.50;102331.31;7387118;19;20448;-77
2022/08/28 10:21:16;;;;;;;8.02;2.50;;;;;;;24.11;73.07;102327.56;7380676;19;20086;-77
2022/08/28 10:24:23;;;;;;;6.03;2.22;;;;;;;23.86;72.35;102328.97;7389194;19;20011;-78
2022/08/28 10:27:07;;;;;;;3.90;1.92;;;;;;;24.34;70.44;102319.09;7384031;19;20018;-78
2022/08/28 10:29:57;;;;;;;7.43;2.08;;;;;;;24.72;68.96;102316.50;7385644;19;20019;-77
2022/08/28 10:33:09;;;;;;;7.40;3.17;;;;;;;23.94;68.47;102329.69;7378497;19;20432;-79
2022/08/28 10:35:48;;;;;;;6.53;2.47;;;;;;;24.33;67.65;102320.91;7378968;19;20018;-77
2022/08/28 10:38:21;;;;;;;6.63;2.35;;;;;;;24.38;68.31;102320.81;7381445;19;20015;-78
2022/08/28 10:41:00;;;;;;;9.40;2.65;;;;;;;24.40;67.45;102322.53;7379624;19;20010;-77
2022/08/28 10:43:44;;;;;;;5.07;1.88;;;;;;;24.35;67.66;102320.88;7379696;19;20007;-79
2022/08/28 10:46:22;;;;;;;7.90;2.50;;;;;;;24.26;68.29;102319.25;7379248;19;20078;-76
2022/08/28 10:49:01;;;;;;;7.65;2.53;;;;;;;24.04;70.04;102328.59;7380062;19;20052;-76
2022/08/28 10:51:41;;;;;;;8.55;2.72;;;;;;;23.24;72.93;102337.13;7379671;19;20031;-75
2022/08/28 10:54:23;;;;;;;6.35;2.20;;;;;;;23.01;73.15;102329.44;7375906;19;20021;-76
2022/08/28 10:57:00;;;;;;;7.00;2.05;;;;;;;22.86;75.61;102331.47;7375686;19;20039;-75
2022/08/28 10:59:37;;;;;;;5.40;2.38;;;;;;;22.78;76.58;102336.91;7373301;19;20388;-75
2022/08/28 11:02:15;;;;;;;5.68;1.92;;;;;;;22.67;76.70;102338.84;7379926;19;20037;-76
2022/08/28 11:04:51;;;;;;;7.93;2.38;;;;;;;23.54;73.16;102342.94;7380248;19;20007;-75
2022/08/28 11:07:39;;;;;;;5.40;2.22;;;;;;;23.63;72.70;102332.94;7380260;19;20325;-75
2022/08/28 11:10:47;;;;;;;6.57;2.67;;;;;;;23.75;72.41;102335.41;7384668;19;20044;-75
2022/08/28 11:13:48;;;;;;;6.47;2.30;;;;;;;24.29;71.22;102332.59;7384316;19;20010;-76
2022/08/28 11:16:24;;;;;;;6.45;2.22;;;;;;;23.74;71.89;102344.34;7380649;19;20007;-75
2022/08/28 11:19:27;;;;;;;6.38;2.28;;;;;;;23.46;74.64;102338.56;7375041;19;20006;-74
2022/08/28 11:22:07;;;;;;;4.57;1.92;;;;;;;23.34;75.97;102348.56;7378824;19;20018;-75
2022/08/28 11:24:48;;;;;;;7.90;2.00;;;;;;;22.94;77.31;102346.50;7377956;19;20029;-74
2022/08/28 11:27:24;;;;;;;8.27;2.65;;;;;;;22.87;75.73;102347.50;7376556;19;20325;-75
2022/08/28 11:30:26;;;;;;;7.05;2.38;;;;;;;22.70;75.87;102341.47;7377588;19;20014;-74
2022/08/28 11:33:11;;;;;;;7.35;2.80;;;;;;;23.10;75.82;102340.00;7378552;19;20109;-76
2022/08/28 11:35:51;;;;;;;5.80;2.35;;;;;;;23.70;72.14;102333.72;7375694;19;20046;-75
2022/08/28 11:38:51;;;;;;;8.05;2.40;;;;;;;24.26;67.49;102332.66;7373717;19;20030;-75
2022/08/28 11:41:25;;;;;;;6.40;2.10;;;;;;;24.36;66.60;102326.19;7378775;19;20527;-76
2022/08/28 11:44:27;;;;;;;6.53;1.90;;;;;;;23.88;67.99;102335.19;7375959;19;20042;-76
2022/08/28 11:47:34;;;;;;;5.72;2.22;;;;;;;23.93;68.36;102333.28;7372469;19;20018;-74
2022/08/28 11:50:29;;;;;;;7.22;2.55;;;;;;;23.80;68.46;102333.53;7378078;19;20022;-77
2022/08/28 11:53:27;;;;;;;5.70;2.00;;;;;;;23.44;68.76;102334.13;7371350;19;20019;-76
2022/08/28 11:56:26;;;;;;;4.32;1.90;;;;;;;23.67;70.28;102340.03;7375114;19;20291;-76